Airfield :
LOGIN :

Register | Disclaimer

   EN    FR    IT 

 










Legend :    VFR   Marginal VFR   IFR   Intensive IFR   Very Intensive IFR
Visi :
Ceiling :
>= 8 km
>= 3000ft
5 to 8 km
1000 to 3000 ft
1500m to 5 km
500 to 1000 ft
800 to 1500m
200 to 500 ft
< 800m
< 200 ft
Symbols :   Thunderstorms  Fog  Heavy snow  Heavy precipitations  Wind > 20 kt
SIGMETs :     Misc.  Thunderstorms  Icing  Turbulence  Mountain Waves  Volcanic Ashes






- Airport Elevation : -13 ft
- IATA code : LEY


EHLE - Lelystad

CURRENT METAR :
  • 171825Z AUTO 29011KT 260V320 9999 NCD 11/07 Q1007 NOSIG

EXPIRED METARs :
  • 171755Z AUTO 29010KT 270V330 9999 FEW024 BKN033 12/07 Q1006 NOSIG
  • 171725Z AUTO 29012KT 260V320 9999 OVC032 12/08 Q1006 NOSIG
  • 171655Z AUTO 30012KT 270V340 9999 OVC033 13/08 Q1006 NOSIG
  • 171625Z AUTO 31012KT 280V350 9999 FEW022 BKN033 BKN041 13/08 Q1005 NOSIG
  • 171555Z AUTO 33014KT 290V350 9999 SCT016 BKN020 OVC023 13/10 Q1005 NOSIG

TAF TAF EHLE
Valid from the 17 at 18:00 until the 19 at 00:00 UTC


171706Z 1718/1824 30010KT 9999 SCT015
BECMG 1719/1722 VRB03KT
PROB40
TEMPO 1801/1808 4000 RA -SHRA SCT008 BKN014 FEW020CB
BECMG 1810/1813 29010KT
PROB30
TEMPO 1811/1817 6000 SHRA FEW020CB
BECMG 1818/1821 21004KT



MET'MAP, your aeronautical weather chart ! - Copyright ORBIFLY December 2007 - Disclaimer

ORBIFLY MET'MAP TEAM :

Programming & Development : Alexandra Zaïnal
Concept & original design : Baudouin d'Aumeries
Assistance for programming : Marc-Olivier Méhu
Technical & hardware support : Manuel Goepfert

Contact : metmap@orbifly.com




SOURCES & CREDITS :

   NOAA